Data for 10/25/2006

Time Sea-Level Adjusted Pressure Absolute Pressure Temperature Relative Humidity Dew Point   
(mb) (inHg) (mb) (inHg) (C) (F) (%) (C) (F)
00:05 1009 29.8 839 24.78 6.1 43 57 -1.8 28.8
00:10 1009 29.8 839 24.78 6.2 43.2 58 -1.5 29.3
00:15 1010 29.83 839 24.78 6 42.8 60 -1.3 29.7
00:20 1010 29.83 839 24.78 5.7 42.2 62 -0.9 30.3
00:25 1010 29.83 839 24.78 5.3 41.5 64 -1 30.2
00:30 1010 29.83 839 24.78 5.2 41.4 64 -1 30.2
00:35 1010 29.83 839 24.78 4.9 40.8 68 -0.6 31
00:40 1010 29.83 839 24.78 4.5 40.1 67 -1.1 30
00:45 1010 29.83 839 24.78 4.8 40.7 65 -1.1 29.9
00:50 1010 29.83 839 24.78 5.2 41.4 65 -0.8 30.6
00:55 1010 29.83 839 24.78 5 41 68 -0.4 31.2
01:00 1010 29.83 839 24.78 4.7 40.4 70 -0.3 31.5
01:05 1010 29.83 839 24.78 4.9 40.9 70 -0.1 31.7
01:10 1010 29.83 839 24.78 5.1 41.2 70 0 32
01:15 1010 29.83 839 24.78 5.3 41.5 69 0.1 32.2
01:20 1010 29.83 839 24.78 5.5 41.8 68 0.1 32.2
01:25 1010 29.83 839 24.78 5.5 41.9 69 0.2 32.3
01:30 1010 29.83 840 24.81 5.4 41.7 69 0.1 32.3
01:35 1010 29.83 840 24.81 5.5 41.9 67 -0.1 31.8
01:40 1010 29.83 840 24.81 5.8 42.4 66 0 32
01:45 1011 29.85 840 24.81 5.8 42.4 67 0.1 32.1
01:50 1011 29.85 840 24.81 5.7 42.3 66 -0.1 31.8
01:55 1011 29.85 840 24.81 5.8 42.4 66 0 32
02:00 1011 29.85 840 24.81 5.7 42.2 67 -0 32
02:05 1011 29.85 840 24.81 5.7 42.2 66 -0.2 31.7
02:10 1011 29.85 840 24.81 5.7 42.3 65 -0.4 31.2
02:15 1011 29.85 840 24.81 5.7 42.3 64 -0.6 31
02:20 1011 29.85 840 24.81 5.6 42.1 65 -0.5 31
02:25 1011 29.85 841 24.83 5.6 42 64 -0.6 30.9
02:30 1011 29.85 841 24.83 5.6 42 64 -0.6 30.9
02:35 1012 29.88 841 24.83 5.5 41.9 65 -0.6 30.9
02:40 1012 29.88 841 24.83 5.5 41.8 65 -0.7 30.8
02:45 1012 29.88 841 24.83 5.5 41.8 64 -0.8 30.6
02:50 1012 29.88 841 24.83 5.4 41.7 65 -0.7 30.8
02:55 1012 29.88 841 24.83 5.4 41.7 64 -0.9 30.4
03:00 1012 29.88 841 24.83 5.4 41.8 65 -0.7 30.8
03:05 1012 29.88 841 24.83 5.3 41.5 66 -0.5 31.2
03:10 1012 29.88 841 24.83 5.3 41.5 65 -0.6 30.8
03:15 1012 29.88 841 24.83 5.3 41.5 66 -0.5 31.1
03:20 1012 29.88 842 24.86 5.2 41.3 66 -0.5 31.1
03:25 1012 29.88 842 24.86 5 41 68 -0.3 31.4
03:30 1013 29.91 842 24.86 4.7 40.5 70 -0.4 31.4
03:35 1013 29.91 842 24.86 4.6 40.3 71 -0.2 31.6
03:40 1013 29.91 842 24.86 4.8 40.6 70 -0.3 31.5
03:45 1013 29.91 842 24.86 4.9 40.8 69 -0.4 31.3
03:50 1013 29.91 842 24.86 4.8 40.7 71 -0.1 31.9
03:55 1013 29.91 842 24.86 4.7 40.5 73 0.2 32.4
04:00 1013 29.91 842 24.86 4.6 40.3 74 0.4 32.7
04:05 1013 29.91 842 24.86 4.4 40 75 0.4 32.7
04:10 1013 29.91 842 24.86 4.3 39.7 75 0.2 32.4
04:15 1013 29.91 842 24.86 4.4 39.8 76 0.5 32.9
04:20 1013 29.91 842 24.86 4.3 39.7 77 0.5 33
04:25 1013 29.91 842 24.86 4.2 39.5 77 0.6 33
04:30 1013 29.91 842 24.86 4.1 39.3 78 0.7 33.2
04:35 1013 29.91 842 24.86 3.9 39 79 0.6 33.2
04:40 1013 29.91 842 24.86 3.6 38.6 82 0.9 33.7
04:45 1013 29.91 843 24.89 3.3 38 85 1 33.8
04:50 1013 29.91 843 24.89 3.1 37.6 87 1.1 34
04:55 1013 29.91 843 24.89 3 37.4 88 1.2 34.1
05:00 1013 29.91 843 24.89 2.8 37.1 89 1.1 34
05:05 1013 29.91 843 24.89 2.7 36.9 89 1.2 34.1
05:10 1013 29.91 843 24.89 2.7 36.8 90 1.1 34
05:15 1014 29.94 843 24.89 2.5 36.5 90 1 33.8
05:20 1014 29.94 843 24.89 2.3 36.1 90 0.8 33.4
05:25 1014 29.94 843 24.89 1.8 35.2 91 0.5 32.8
05:30 1014 29.94 843 24.89 1.3 34.3 93 0.2 32.4
05:35 1014 29.94 843 24.89 0.9 33.7 94 0.1 32.2
05:40 1014 29.94 843 24.89 0.7 33.2 95 0 32
05:45 1014 29.94 843 24.89 0.7 33.2 96 0 32.1
05:50 1014 29.94 844 24.92 0.6 33.1 95 -0 32
05:55 1014 29.94 844 24.92 0.7 33.2 95 -0.1 31.8
06:00 1015 29.97 844 24.92 0.6 33.1 94 -0.2 31.6
06:05 1015 29.97 844 24.92 0.8 33.4 94 -0.1 31.8
06:10 1015 29.97 844 24.92 0.8 33.4 93 -0.2 31.6
06:15 1015 29.97 844 24.92 0.8 33.5 93 -0.1 31.8
06:20 1015 29.97 844 24.92 0.8 33.5 93 -0.2 31.7
06:25 1015 29.97 844 24.92 0.8 33.4 94 -0 31.9
06:30 1015 29.97 844 24.92 0.8 33.5 93 -0.1 31.8
06:35 1015 29.97 844 24.92 0.8 33.5 94 -0 31.9
06:40 1015 29.97 844 24.92 0.9 33.6 94 0 32
06:45 1015 29.97 844 24.92 0.8 33.5 94 -0 32
06:50 1015 29.97 844 24.92 0.7 33.3 95 -0 32
06:55 1015 29.97 844 24.92 0.7 33.3 95 0 32.1
07:00 1015 29.97 844 24.92 0.7 33.3 95 -0 32
07:05 1015 29.97 845 24.95 0.7 33.3 95 -0 31.9
07:10 1015 29.97 845 24.95 0.7 33.3 95 -0 32
07:15 1015 29.97 845 24.95 0.7 33.2 94 -0.1 31.7
07:20 1016 30 845 24.95 0.7 33.3 93 -0.2 31.6
07:25 1016 30 845 24.95 0.7 33.2 93 -0.4 31.3
07:30 1016 30 845 24.95 0.6 33.1 93 -0.5 31.1
07:35 1016 30 845 24.95 0.5 32.8 93 -0.6 31
07:40 1016 30 845 24.95 0.3 32.6 92 -0.8 30.6
07:45 1016 30 845 24.95 0.3 32.5 91 -1 30.2
07:50 1016 30 845 24.95 0.4 32.7 91 -1 30.2
07:55 1016 30 845 24.95 0.4 32.7 92 -0.8 30.5
08:00 1016 30 845 24.95 0.4 32.7 90 -1 30.2
08:05 1016 30 845 24.95 0.5 32.9 89 -1.1 30
08:10 1016 30 845 24.95 0.5 32.9 90 -0.9 30.3
08:15 1016 30 845 24.95 0.5 33 91 -0.8 30.6
08:20 1016 30 845 24.95 0.5 32.9 90 -0.9 30.4
08:25 1016 30 845 24.95 0.6 33.1 87 -1.3 29.7
08:30 1016 30 846 24.98 0.8 33.5 86 -1.2 29.8
08:35 1016 30 846 24.98 0.9 33.6 86 -1.3 29.7
08:40 1017 30.03 846 24.98 0.9 33.7 86 -1.1 30
08:45 1017 30.03 846 24.98 0.9 33.6 87 -1.1 30.1
08:50 1017 30.03 846 24.98 1 33.8 86 -1.2 29.9
08:55 1017 30.03 846 24.98 0.9 33.7 87 -1 30.3
09:00 1017 30.03 846 24.98 0.9 33.6 90 -0.7 30.8
09:05 1017 30.03 846 24.98 0.7 33.3 90 -0.7 30.7
09:10 1017 30.03 846 24.98 0.6 33 91 -0.8 30.6
09:15 1017 30.03 847 25.01 0.6 33.1 91 -0.6 30.9
09:20 1018 30.06 847 25.01 0.7 33.3 90 -0.8 30.6
09:25 1018 30.06 847 25.01 0.6 33 91 -0.8 30.6
09:30 1018 30.06 847 25.01 0.5 32.9 90 -1 30.2
09:35 1018 30.06 847 25.01 0.5 32.9 89 -1 30.1
09:40 1018 30.06 847 25.01 0.4 32.8 91 -0.9 30.4
09:45 1018 30.06 847 25.01 0.4 32.7 92 -0.8 30.6
09:50 1018 30.06 847 25.01 0.4 32.7 92 -0.7 30.7
09:55 1018 30.06 847 25.01 0.3 32.6 92 -0.8 30.6
10:00 1018 30.06 848 25.04 0.3 32.6 94 -0.6 30.9
10:05 1019 30.09 848 25.04 0.3 32.5 95 -0.4 31.2
10:10 1019 30.09 848 25.04 0.5 32.8 94 -0.4 31.3
10:15 1019 30.09 848 25.04 0.2 32.3 95 -0.6 30.9
10:20 1019 30.09 848 25.04 0 32 96 -0.6 30.9
10:25 1019 30.09 848 25.04 0 32.1 96 -0.5 31.1
10:30 1019 30.09 848 25.04 0.1 32.2 96 -0.5 31.1
10:35 1019 30.09 848 25.04 0.1 32.2 96 -0.4 31.2
10:40 1019 30.09 848 25.04 0.1 32.3 96 -0.4 31.2
10:45 1019 30.09 848 25.04 0.3 32.6 95 -0.3 31.4
10:50 1019 30.09 848 25.04 0.5 33 95 -0.2 31.7
10:55 1019 30.09 848 25.04 0.8 33.4 93 -0.2 31.6
11:00 1019 30.09 848 25.04 0.5 32.9 94 -0.4 31.3
11:05 1019 30.09 848 25.04 0.3 32.6 95 -0.4 31.3
11:10 1019 30.09 848 25.04 0.3 32.6 95 -0.4 31.3
11:15 1019 30.09 848 25.04 0.2 32.4 96 -0.4 31.3
11:20 1019 30.09 848 25.04 0.4 32.8 94 -0.4 31.3
11:25 1019 30.09 848 25.04 0.3 32.5 95 -0.4 31.3
11:30 1019 30.09 848 25.04 0.2 32.4 95 -0.4 31.2
11:35 1019 30.09 848 25.04 0.5 32.8 95 -0.3 31.5
11:40 1019 30.09 848 25.04 0.9 33.5 94 -0 32
11:45 1019 30.09 848 25.04 1.3 34.3 91 -0 31.9
11:50 1019 30.09 848 25.04 1.1 34 88 -0.7 30.8
11:55 1019 30.09 848 25.04 1 33.8 87 -1 30.2
12:00 1019 30.09 848 25.04 1.2 34.1 88 -0.7 30.8
12:05 1019 30.09 848 25.04 1.1 34.1 84 -1.3 29.7
12:10 1019 30.09 848 25.04 1.1 34 88 -0.7 30.7
12:15 1019 30.09 848 25.04 1.2 34.1 87 -0.8 30.5
12:20 1019 30.09 848 25.04 1.4 34.5 84 -1 30.2
12:25 1019 30.09 848 25.04 1.5 34.7 81 -1.4 29.4
12:30 1019 30.09 848 25.04 1.6 34.9 83 -1 30.2
12:35 1019 30.09 848 25.04 1.7 35 80 -1.4 29.4
12:40 1019 30.09 848 25.04 1.8 35.2 78 -1.7 28.9
12:45 1019 30.09 848 25.04 1.9 35.5 75 -2 28.4
12:50 1019 30.09 848 25.04 1.9 35.5 75 -2.1 28.2
12:55 1019 30.09 848 25.04 2 35.6 75 -2 28.4
13:00 1019 30.09 848 25.04 2.1 35.8 75 -2 28.5
13:05 1019 30.09 848 25.04 2.2 35.9 71 -2.6 27.4
13:10 1019 30.09 848 25.04 2.5 36.4 71 -2.3 27.9
13:15 1019 30.09 848 25.04 2.7 36.8 68 -2.7 27.2
13:20 1019 30.09 848 25.04 2.8 37 65 -3.1 26.4
13:25 1019 30.09 849 25.07 2.8 37.1 67 -2.7 27.2
13:30 1019 30.09 849 25.07 3 37.4 67 -2.6 27.4
13:35 1019 30.09 849 25.07 3 37.4 65 -2.9 26.7
13:40 1019 30.09 849 25.07 3.1 37.6 65 -2.8 26.9
13:45 1020 30.12 849 25.07 3.3 38 65 -2.7 27.1
13:50 1019 30.09 849 25.07 3.5 38.3 63 -3 26.6
13:55 1019 30.09 849 25.07 3.6 38.5 62 -3 26.5
14:00 1019 30.09 849 25.07 4.5 40.1 58 -3 26.7
14:05 1019 30.09 849 25.07 4.7 40.5 59 -2.5 27.5
14:10 1019 30.09 849 25.07 4.7 40.4 60 -2.5 27.6
14:15 1019 30.09 849 25.07 4.9 40.8 55 -3.3 26.1
14:20 1019 30.09 849 25.07 4.6 40.2 57 -3.2 26.2
14:25 1019 30.09 849 25.07 3.9 39.1 62 -2.7 27.1
14:30 1019 30.09 849 25.07 4.2 39.6 58 -3.3 26
14:35 1019 30.09 849 25.07 3.9 38.9 61 -2.9 26.8
14:40 1019 30.09 849 25.07 3.8 38.9 59 -3.5 25.8
14:45 1019 30.09 849 25.07 3.8 38.8 59 -3.6 25.6
14:50 1019 30.09 849 25.07 3.8 38.9 59 -3.5 25.7
14:55 1019 30.09 848 25.04 4.4 39.9 57 -3.3 26
15:00 1019 30.09 848 25.04 4.1 39.4 59 -3.1 26.5
15:05 1019 30.09 848 25.04 4.3 39.7 59 -3.1 26.5
15:10 1019 30.09 848 25.04 4.5 40.1 57 -3.3 26.1
15:15 1019 30.09 849 25.07 4.3 39.7 59 -3.1 26.5
15:20 1019 30.09 849 25.07 4.3 39.8 58 -3.2 26.2
15:25 1020 30.12 849 25.07 3.9 39 58 -3.5 25.6
15:30 1020 30.12 849 25.07 3.8 38.9 57 -3.8 25.1
15:35 1019 30.09 849 25.07 3.9 39 56 -4 24.8
15:40 1019 30.09 849 25.07 3.9 38.9 57 -4 24.8
15:45 1020 30.12 849 25.07 4 39.3 56 -3.9 24.9
15:50 1020 30.12 849 25.07 4.2 39.5 58 -3.3 26.1
15:55 1020 30.12 849 25.07 4.3 39.7 57 -3.5 25.6
16:00 1020 30.12 849 25.07 4.3 39.8 59 -2.9 26.8
16:05 1020 30.12 849 25.07 4.8 40.6 54 -3.7 25.4
16:10 1020 30.12 849 25.07 4.8 40.7 56 -3.2 26.3
16:15 1020 30.12 849 25.07 4.3 39.7 57 -3.4 25.9
16:20 1020 30.12 849 25.07 4.1 39.4 59 -3.2 26.2
16:25 1020 30.12 849 25.07 4.4 39.9 58 -3.1 26.4
16:30 1020 30.12 849 25.07 4.4 39.8 57 -3.4 26
16:35 1020 30.12 849 25.07 4.4 39.8 55 -3.8 25.1
16:40 1020 30.12 849 25.07 4.3 39.7 57 -3.4 25.8
16:45 1020 30.12 849 25.07 4.3 39.8 56 -3.6 25.5
16:50 1020 30.12 849 25.07 4.3 39.7 56 -3.8 25.2
16:55 1020 30.12 849 25.07 4.3 39.7 57 -3.5 25.7
17:00 1020 30.12 849 25.07 4.2 39.6 56 -3.7 25.3
17:05 1020 30.12 849 25.07 4.2 39.6 57 -3.5 25.8
17:10 1020 30.12 849 25.07 4.3 39.7 57 -3.4 25.9
17:15 1020 30.12 850 25.1 4.2 39.6 59 -3.1 26.5
17:20 1020 30.12 850 25.1 4.2 39.5 59 -3.2 26.2
17:25 1020 30.12 850 25.1 4.1 39.4 60 -3 26.5
17:30 1020 30.12 850 25.1 4 39.2 60 -3 26.6
17:35 1020 30.12 850 25.1 4 39.2 62 -2.7 27.2
17:40 1020 30.12 850 25.1 3.9 39 61 -2.8 26.9
17:45 1020 30.12 850 25.1 3.9 38.9 63 -2.6 27.3
17:50 1020 30.12 850 25.1 3.8 38.8 62 -2.7 27.1
17:55 1020 30.12 850 25.1 3.7 38.7 65 -2.3 27.8
18:00 1020 30.12 850 25.1 3.7 38.6 64 -2.5 27.4
18:05 1020 30.12 850 25.1 3.6 38.6 63 -2.7 27.1
18:10 1020 30.12 850 25.1 3.6 38.6 64 -2.6 27.3
18:15 1021 30.15 850 25.1 3.5 38.4 64 -2.6 27.3
18:20 1021 30.15 850 25.1 3.3 38 68 -2.1 28.2
18:25 1021 30.15 850 25.1 3 37.3 72 -1.7 29
18:30 1021 30.15 850 25.1 2.6 36.7 73 -1.8 28.7
18:35 1021 30.15 850 25.1 2.4 36.4 74 -1.7 28.9
18:40 1021 30.15 850 25.1 2.5 36.4 70 -2.5 27.6
18:45 1021 30.15 850 25.1 2.8 37.1 67 -2.8 27
18:50 1021 30.15 850 25.1 3.1 37.6 65 -2.9 26.9
18:55 1021 30.15 850 25.1 3.4 38 64 -2.9 26.8
19:00 1021 30.15 850 25.1 3.5 38.3 64 -2.8 27
19:05 1021 30.15 850 25.1 3.5 38.2 65 -2.6 27.4
19:10 1021 30.15 850 25.1 3.4 38.1 65 -2.5 27.5
19:15 1021 30.15 850 25.1 3.3 37.9 65 -2.6 27.3
19:20 1021 30.15 850 25.1 3 37.4 67 -2.5 27.6
19:25 1021 30.15 850 25.1 2.8 37 68 -2.6 27.3
19:30 1021 30.15 850 25.1 2.8 37 68 -2.5 27.4
19:35 1021 30.15 851 25.13 2.8 37 68 -2.6 27.4
19:40 1021 30.15 850 25.1 2.8 37.1 65 -3 26.6
19:45 1021 30.15 850 25.1 3 37.3 65 -3 26.6
19:50 1021 30.15 850 25.1 3.1 37.5 64 -3.1 26.4
19:55 1021 30.15 851 25.13 3.3 37.9 62 -3.3 26
20:00 1021 30.15 851 25.13 3.5 38.2 60 -3.5 25.7
20:05 1021 30.15 851 25.13 3.5 38.3 59 -3.8 25.1
20:10 1021 30.15 851 25.13 3.6 38.4 58 -4 24.9
20:15 1022 30.18 851 25.13 3.6 38.5 56 -4.4 24.1
20:20 1022 30.18 851 25.13 3.7 38.6 56 -4.3 24.3
20:25 1022 30.18 851 25.13 3.7 38.6 56 -4.3 24.3
20:30 1022 30.18 851 25.13 3.6 38.5 56 -4.3 24.2
20:35 1022 30.18 851 25.13 3.6 38.4 58 -4 24.8
20:40 1022 30.18 851 25.13 3.2 37.7 64 -2.9 26.8
20:45 1022 30.18 851 25.13 2.5 36.6 68 -2.7 27.1
20:50 1022 30.18 851 25.13 2.3 36.2 68 -2.9 26.7
20:55 1022 30.18 851 25.13 2.3 36.2 69 -2.8 26.9
21:00 1022 30.18 851 25.13 2.3 36.2 67 -3.2 26.2
21:05 1022 30.18 851 25.13 2.4 36.4 66 -3.3 26.1
21:10 1022 30.18 851 25.13 2.5 36.5 66 -3.3 26
21:15 1022 30.18 851 25.13 2.6 36.6 64 -3.5 25.7
21:20 1022 30.18 851 25.13 2.6 36.7 64 -3.6 25.5
21:25 1022 30.18 851 25.13 2.5 36.6 62 -4.1 24.7
21:30 1022 30.18 851 25.13 2.5 36.5 62 -3.9 24.9
21:35 1022 30.18 851 25.13 2.4 36.3 64 -3.7 25.4
21:40 1022 30.18 851 25.13 2.3 36.1 65 -3.6 25.6
21:45 1022 30.18 851 25.13 2.2 35.9 65 -3.7 25.4
21:50 1022 30.18 851 25.13 2.2 35.9 65 -3.7 25.3
21:55 1022 30.18 851 25.13 2.3 36.1 64 -3.9 25
22:00 1022 30.18 851 25.13 2.3 36.1 63 -4 24.9
22:05 1022 30.18 851 25.13 2.3 36.1 65 -3.7 25.4
22:10 1022 30.18 851 25.13 2.2 35.9 64 -3.9 24.9
22:15 1022 30.18 851 25.13 2.3 36.1 63 -4 24.7
22:20 1022 30.18 851 25.13 2.4 36.3 61 -4.4 24
22:25 1022 30.18 851 25.13 2.4 36.4 60 -4.6 23.7
22:30 1022 30.18 851 25.13 2.6 36.6 59 -4.8 23.4
22:35 1022 30.18 851 25.13 2.5 36.6 58 -4.8 23.4
22:40 1022 30.18 851 25.13 2.5 36.4 59 -4.7 23.5
22:45 1022 30.18 851 25.13 2.4 36.4 59 -4.9 23.3
22:50 1022 30.18 852 25.16 2.5 36.6 58 -5 23
22:55 1022 30.18 852 25.16 2.5 36.5 58 -4.9 23.1
23:00 1022 30.18 852 25.16 2.5 36.5 57 -5.2 22.6
23:05 1023 30.21 852 25.16 2.6 36.7 55 -5.5 22.1
23:10 1023 30.21 852 25.16 2.8 37 55 -5.2 22.6
23:15 1023 30.21 852 25.16 2.8 37 55 -5.2 22.6
23:20 1023 30.21 852 25.16 2.7 36.8 56 -5.2 22.7
23:25 1023 30.21 852 25.16 2.5 36.5 57 -5.1 22.7
23:30 1023 30.21 852 25.16 2.3 36.1 60 -4.6 23.7
23:35 1023 30.21 852 25.16 2 35.6 62 -4.4 24
23:40 1023 30.21 852 25.16 1.7 35 64 -4.4 24.2
23:45 1023 30.21 852 25.16 1.3 34.4 66 -4.3 24.3
23:50 1023 30.21 852 25.16 1.2 34.1 66 -4.4 24.1
23:55 1023 30.21 852 25.16 1.1 34 65 -4.7 23.6
24:00 1023 30.21 852 25.16 1.1 34 64 -4.9 23.1